sensor_id;sensor_type;location;lat;lon;timestamp;temperature;humidity
46055;DHT22;31788;6.954;-71.872;2023-04-25T00:02:01;28.70;98.70
46055;DHT22;31788;6.954;-71.872;2023-04-25T00:04:29;28.70;98.60
46055;DHT22;31788;6.954;-71.872;2023-04-25T00:06:56;28.70;98.70
46055;DHT22;31788;6.954;-71.872;2023-04-25T00:09:23;28.70;98.60
46055;DHT22;31788;6.954;-71.872;2023-04-25T00:11:51;28.80;98.50
46055;DHT22;31788;6.954;-71.872;2023-04-25T00:14:17;28.70;98.30
46055;DHT22;31788;6.954;-71.872;2023-04-25T00:16:44;28.70;97.90
46055;DHT22;31788;6.954;-71.872;2023-04-25T00:19:11;28.70;98.10
46055;DHT22;31788;6.954;-71.872;2023-04-25T00:21:38;28.70;98.20
46055;DHT22;31788;6.954;-71.872;2023-04-25T00:24:07;28.70;98.00
46055;DHT22;31788;6.954;-71.872;2023-04-25T00:26:35;28.70;98.30
46055;DHT22;31788;6.954;-71.872;2023-04-25T00:29:02;28.70;98.40
46055;DHT22;31788;6.954;-71.872;2023-04-25T00:31:29;28.70;98.20
46055;DHT22;31788;6.954;-71.872;2023-04-25T00:33:57;28.70;98.20
46055;DHT22;31788;6.954;-71.872;2023-04-25T00:36:23;28.60;98.30
46055;DHT22;31788;6.954;-71.872;2023-04-25T00:38:50;28.70;98.30
46055;DHT22;31788;6.954;-71.872;2023-04-25T00:41:17;28.60;98.20
46055;DHT22;31788;6.954;-71.872;2023-04-25T00:43:46;28.60;98.50
46055;DHT22;31788;6.954;-71.872;2023-04-25T00:46:15;28.60;98.40
46055;DHT22;31788;6.954;-71.872;2023-04-25T00:48:41;28.60;98.40
46055;DHT22;31788;6.954;-71.872;2023-04-25T00:51:09;28.60;98.30
46055;DHT22;31788;6.954;-71.872;2023-04-25T00:53:38;28.60;98.50
46055;DHT22;31788;6.954;-71.872;2023-04-25T00:56:05;28.60;98.50
46055;DHT22;31788;6.954;-71.872;2023-04-25T00:58:32;28.60;98.60
46055;DHT22;31788;6.954;-71.872;2023-04-25T01:00:59;28.60;98.50
46055;DHT22;31788;6.954;-71.872;2023-04-25T01:03:26;28.60;98.60
46055;DHT22;31788;6.954;-71.872;2023-04-25T01:05:54;28.60;98.60
46055;DHT22;31788;6.954;-71.872;2023-04-25T01:08:24;28.60;98.60
46055;DHT22;31788;6.954;-71.872;2023-04-25T01:10:54;28.60;98.70
46055;DHT22;31788;6.954;-71.872;2023-04-25T01:13:20;28.60;98.80
46055;DHT22;31788;6.954;-71.872;2023-04-25T01:15:48;28.70;98.80
46055;DHT22;31788;6.954;-71.872;2023-04-25T01:18:14;28.60;98.70
46055;DHT22;31788;6.954;-71.872;2023-04-25T01:20:42;28.50;98.80
46055;DHT22;31788;6.954;-71.872;2023-04-25T01:23:09;28.60;98.90
46055;DHT22;31788;6.954;-71.872;2023-04-25T01:25:37;28.60;98.80
46055;DHT22;31788;6.954;-71.872;2023-04-25T01:28:04;28.60;98.70
46055;DHT22;31788;6.954;-71.872;2023-04-25T01:30:31;28.60;98.80
46055;DHT22;31788;6.954;-71.872;2023-04-25T01:32:59;28.60;98.70
46055;DHT22;31788;6.954;-71.872;2023-04-25T01:35:26;28.60;98.90
46055;DHT22;31788;6.954;-71.872;2023-04-25T01:37:54;28.50;99.00
46055;DHT22;31788;6.954;-71.872;2023-04-25T01:40:21;28.50;99.10
46055;DHT22;31788;6.954;-71.872;2023-04-25T01:42:51;28.50;99.10
46055;DHT22;31788;6.954;-71.872;2023-04-25T01:45:19;28.50;99.10
46055;DHT22;31788;6.954;-71.872;2023-04-25T01:47:45;28.50;99.10
46055;DHT22;31788;6.954;-71.872;2023-04-25T01:50:17;28.50;99.20
46055;DHT22;31788;6.954;-71.872;2023-04-25T01:52:44;28.50;99.20
46055;DHT22;31788;6.954;-71.872;2023-04-25T01:55:11;28.50;99.20
46055;DHT22;31788;6.954;-71.872;2023-04-25T01:57:38;28.50;99.40
46055;DHT22;31788;6.954;-71.872;2023-04-25T02:00:06;28.40;99.00
46055;DHT22;31788;6.954;-71.872;2023-04-25T02:02:34;28.40;99.20
46055;DHT22;31788;6.954;-71.872;2023-04-25T02:05:01;28.40;99.40
46055;DHT22;31788;6.954;-71.872;2023-04-25T02:07:28;28.30;99.50
46055;DHT22;31788;6.954;-71.872;2023-04-25T02:09:54;28.30;99.50
46055;DHT22;31788;6.954;-71.872;2023-04-25T02:12:21;28.30;99.50
46055;DHT22;31788;6.954;-71.872;2023-04-25T02:14:47;28.30;99.60
46055;DHT22;31788;6.954;-71.872;2023-04-25T02:17:14;28.20;99.60
46055;DHT22;31788;6.954;-71.872;2023-04-25T02:19:41;28.20;99.80
46055;DHT22;31788;6.954;-71.872;2023-04-25T02:22:08;28.20;99.90
46055;DHT22;31788;6.954;-71.872;2023-04-25T02:24:35;28.20;99.80
46055;DHT22;31788;6.954;-71.872;2023-04-25T02:27:01;28.10;99.80
46055;DHT22;31788;6.954;-71.872;2023-04-25T02:29:29;28.10;99.90
46055;DHT22;31788;6.954;-71.872;2023-04-25T02:31:56;28.00;99.90
46055;DHT22;31788;6.954;-71.872;2023-04-25T02:34:22;28.00;99.90
46055;DHT22;31788;6.954;-71.872;2023-04-25T02:36:49;27.90;99.90
46055;DHT22;31788;6.954;-71.872;2023-04-25T02:39:19;27.90;99.90
46055;DHT22;31788;6.954;-71.872;2023-04-25T02:41:45;27.90;99.90
46055;DHT22;31788;6.954;-71.872;2023-04-25T02:44:12;27.90;99.90
46055;DHT22;31788;6.954;-71.872;2023-04-25T02:46:38;27.90;99.90
46055;DHT22;31788;6.954;-71.872;2023-04-25T02:49:06;27.80;99.90
46055;DHT22;31788;6.954;-71.872;2023-04-25T02:51:33;27.80;99.90
46055;DHT22;31788;6.954;-71.872;2023-04-25T02:54:00;27.80;99.90
46055;DHT22;31788;6.954;-71.872;2023-04-25T02:56:26;27.80;99.90
46055;DHT22;31788;6.954;-71.872;2023-04-25T02:58:53;27.80;99.90
46055;DHT22;31788;6.954;-71.872;2023-04-25T03:01:20;27.80;99.90
46055;DHT22;31788;6.954;-71.872;2023-04-25T03:03:46;27.80;99.90
46055;DHT22;31788;6.954;-71.872;2023-04-25T03:06:13;27.70;99.90
46055;DHT22;31788;6.954;-71.872;2023-04-25T03:08:40;27.70;99.90
46055;DHT22;31788;6.954;-71.872;2023-04-25T03:11:07;27.60;99.90
46055;DHT22;31788;6.954;-71.872;2023-04-25T03:13:34;27.60;99.90
46055;DHT22;31788;6.954;-71.872;2023-04-25T03:16:00;27.60;99.90
46055;DHT22;31788;6.954;-71.872;2023-04-25T03:18:27;27.60;99.90
46055;DHT22;31788;6.954;-71.872;2023-04-25T03:20:53;27.60;99.90
46055;DHT22;31788;6.954;-71.872;2023-04-25T03:23:21;27.70;99.90
46055;DHT22;31788;6.954;-71.872;2023-04-25T03:25:48;27.70;99.90
46055;DHT22;31788;6.954;-71.872;2023-04-25T03:28:14;27.60;99.90
46055;DHT22;31788;6.954;-71.872;2023-04-25T03:30:41;27.70;99.90
46055;DHT22;31788;6.954;-71.872;2023-04-25T03:33:07;27.60;99.90
46055;DHT22;31788;6.954;-71.872;2023-04-25T03:35:34;27.60;99.90
46055;DHT22;31788;6.954;-71.872;2023-04-25T03:38:01;27.50;99.90
46055;DHT22;31788;6.954;-71.872;2023-04-25T03:40:27;27.60;99.90
46055;DHT22;31788;6.954;-71.872;2023-04-25T03:42:54;27.50;99.90
46055;DHT22;31788;6.954;-71.872;2023-04-25T03:45:20;27.50;99.90
46055;DHT22;31788;6.954;-71.872;2023-04-25T03:47:47;27.40;99.90
46055;DHT22;31788;6.954;-71.872;2023-04-25T03:50:13;27.40;99.90
46055;DHT22;31788;6.954;-71.872;2023-04-25T03:52:40;27.40;99.90
46055;DHT22;31788;6.954;-71.872;2023-04-25T03:55:07;27.40;99.90
46055;DHT22;31788;6.954;-71.872;2023-04-25T03:57:34;27.40;99.90
46055;DHT22;31788;6.954;-71.872;2023-04-25T04:00:00;27.40;99.90
46055;DHT22;31788;6.954;-71.872;2023-04-25T04:02:27;27.40;99.90
46055;DHT22;31788;6.954;-71.872;2023-04-25T04:04:54;27.40;99.90
46055;DHT22;31788;6.954;-71.872;2023-04-25T04:07:22;27.40;99.90
46055;DHT22;31788;6.954;-71.872;2023-04-25T04:09:49;27.30;99.90
46055;DHT22;31788;6.954;-71.872;2023-04-25T04:12:15;27.40;99.90
46055;DHT22;31788;6.954;-71.872;2023-04-25T04:14:42;27.40;99.90
46055;DHT22;31788;6.954;-71.872;2023-04-25T04:17:09;27.40;99.90
46055;DHT22;31788;6.954;-71.872;2023-04-25T04:19:35;27.40;99.90
46055;DHT22;31788;6.954;-71.872;2023-04-25T04:22:02;27.50;99.90
46055;DHT22;31788;6.954;-71.872;2023-04-25T04:24:28;27.40;99.90
46055;DHT22;31788;6.954;-71.872;2023-04-25T04:26:55;27.40;99.90
46055;DHT22;31788;6.954;-71.872;2023-04-25T04:29:22;27.40;99.90
46055;DHT22;31788;6.954;-71.872;2023-04-25T04:31:50;27.40;99.90
46055;DHT22;31788;6.954;-71.872;2023-04-25T04:34:18;27.40;99.90
46055;DHT22;31788;6.954;-71.872;2023-04-25T04:36:45;27.40;99.90
46055;DHT22;31788;6.954;-71.872;2023-04-25T04:39:13;27.30;99.90
46055;DHT22;31788;6.954;-71.872;2023-04-25T04:41:39;27.40;99.90
46055;DHT22;31788;6.954;-71.872;2023-04-25T04:44:06;27.40;99.90
46055;DHT22;31788;6.954;-71.872;2023-04-25T04:46:35;27.40;99.90
46055;DHT22;31788;6.954;-71.872;2023-04-25T04:49:12;27.40;99.90
46055;DHT22;31788;6.954;-71.872;2023-04-25T04:51:40;27.40;99.90
46055;DHT22;31788;6.954;-71.872;2023-04-25T04:54:13;27.40;99.90
46055;DHT22;31788;6.954;-71.872;2023-04-25T04:56:39;27.40;99.90
46055;DHT22;31788;6.954;-71.872;2023-04-25T04:59:06;27.40;99.90
46055;DHT22;31788;6.954;-71.872;2023-04-25T05:01:33;27.40;99.90
46055;DHT22;31788;6.954;-71.872;2023-04-25T05:04:03;27.40;99.90
46055;DHT22;31788;6.954;-71.872;2023-04-25T05:06:30;27.40;99.90
46055;DHT22;31788;6.954;-71.872;2023-04-25T05:08:57;27.40;99.90
46055;DHT22;31788;6.954;-71.872;2023-04-25T05:11:24;27.40;99.90
46055;DHT22;31788;6.954;-71.872;2023-04-25T05:13:54;27.40;99.90
46055;DHT22;31788;6.954;-71.872;2023-04-25T05:16:21;27.40;99.90
46055;DHT22;31788;6.954;-71.872;2023-04-25T05:18:47;27.40;99.90
46055;DHT22;31788;6.954;-71.872;2023-04-25T05:21:14;27.40;99.90
46055;DHT22;31788;6.954;-71.872;2023-04-25T05:23:40;27.30;99.90
46055;DHT22;31788;6.954;-71.872;2023-04-25T05:26:07;27.40;99.90
46055;DHT22;31788;6.954;-71.872;2023-04-25T05:28:40;27.30;99.90
46055;DHT22;31788;6.954;-71.872;2023-04-25T05:31:08;27.30;99.90
46055;DHT22;31788;6.954;-71.872;2023-04-25T05:33:35;27.30;99.90
46055;DHT22;31788;6.954;-71.872;2023-04-25T05:36:02;27.30;99.90
46055;DHT22;31788;6.954;-71.872;2023-04-25T05:38:29;27.30;99.90
46055;DHT22;31788;6.954;-71.872;2023-04-25T05:40:55;27.30;99.90
46055;DHT22;31788;6.954;-71.872;2023-04-25T05:43:22;27.30;99.90
46055;DHT22;31788;6.954;-71.872;2023-04-25T05:45:48;27.30;99.90
46055;DHT22;31788;6.954;-71.872;2023-04-25T05:48:15;27.30;99.90
46055;DHT22;31788;6.954;-71.872;2023-04-25T05:50:42;27.20;99.90
46055;DHT22;31788;6.954;-71.872;2023-04-25T05:53:09;27.20;99.90
46055;DHT22;31788;6.954;-71.872;2023-04-25T05:55:35;27.20;99.90
46055;DHT22;31788;6.954;-71.872;2023-04-25T05:58:02;27.20;99.90
46055;DHT22;31788;6.954;-71.872;2023-04-25T06:00:28;27.20;99.90
46055;DHT22;31788;6.954;-71.872;2023-04-25T06:02:55;27.20;99.90
46055;DHT22;31788;6.954;-71.872;2023-04-25T06:05:22;27.20;99.90
46055;DHT22;31788;6.954;-71.872;2023-04-25T06:07:48;27.20;99.90
46055;DHT22;31788;6.954;-71.872;2023-04-25T06:10:15;27.20;99.90
46055;DHT22;31788;6.954;-71.872;2023-04-25T06:12:41;27.20;99.90
46055;DHT22;31788;6.954;-71.872;2023-04-25T06:15:08;27.20;99.90
46055;DHT22;31788;6.954;-71.872;2023-04-25T06:17:36;27.20;99.90
46055;DHT22;31788;6.954;-71.872;2023-04-25T06:20:03;27.20;99.90
46055;DHT22;31788;6.954;-71.872;2023-04-25T06:22:30;27.20;99.90
46055;DHT22;31788;6.954;-71.872;2023-04-25T06:24:56;27.10;99.90
46055;DHT22;31788;6.954;-71.872;2023-04-25T06:27:24;27.20;99.90
46055;DHT22;31788;6.954;-71.872;2023-04-25T06:29:51;27.10;99.90
46055;DHT22;31788;6.954;-71.872;2023-04-25T06:32:18;27.10;99.90
46055;DHT22;31788;6.954;-71.872;2023-04-25T06:34:45;27.10;99.90
46055;DHT22;31788;6.954;-71.872;2023-04-25T06:37:12;27.10;99.90
46055;DHT22;31788;6.954;-71.872;2023-04-25T06:39:39;27.10;99.90
46055;DHT22;31788;6.954;-71.872;2023-04-25T06:42:05;27.10;99.90
46055;DHT22;31788;6.954;-71.872;2023-04-25T06:44:32;27.00;99.90
46055;DHT22;31788;6.954;-71.872;2023-04-25T06:46:59;27.10;99.90
46055;DHT22;31788;6.954;-71.872;2023-04-25T06:49:25;27.00;99.90
46055;DHT22;31788;6.954;-71.872;2023-04-25T06:51:52;27.00;99.90
46055;DHT22;31788;6.954;-71.872;2023-04-25T06:54:18;27.00;99.90
46055;DHT22;31788;6.954;-71.872;2023-04-25T06:56:45;27.00;99.90
46055;DHT22;31788;6.954;-71.872;2023-04-25T06:59:11;27.00;99.90
46055;DHT22;31788;6.954;-71.872;2023-04-25T07:01:38;27.00;99.90
46055;DHT22;31788;6.954;-71.872;2023-04-25T07:04:05;27.00;99.90
46055;DHT22;31788;6.954;-71.872;2023-04-25T07:06:32;27.00;99.90
46055;DHT22;31788;6.954;-71.872;2023-04-25T07:08:58;27.00;99.90
46055;DHT22;31788;6.954;-71.872;2023-04-25T07:11:25;27.00;99.90
46055;DHT22;31788;6.954;-71.872;2023-04-25T07:13:52;27.00;99.90
46055;DHT22;31788;6.954;-71.872;2023-04-25T07:16:18;26.90;99.90
46055;DHT22;31788;6.954;-71.872;2023-04-25T07:18:45;27.00;99.90
46055;DHT22;31788;6.954;-71.872;2023-04-25T07:21:11;26.90;99.90
46055;DHT22;31788;6.954;-71.872;2023-04-25T07:23:38;27.00;99.90
46055;DHT22;31788;6.954;-71.872;2023-04-25T07:26:06;26.90;99.90
46055;DHT22;31788;6.954;-71.872;2023-04-25T07:28:33;26.90;99.90
46055;DHT22;31788;6.954;-71.872;2023-04-25T07:31:00;26.90;99.90
46055;DHT22;31788;6.954;-71.872;2023-04-25T07:33:27;26.90;99.90
46055;DHT22;31788;6.954;-71.872;2023-04-25T07:35:54;26.90;99.90
46055;DHT22;31788;6.954;-71.872;2023-04-25T07:38:20;26.90;99.90
46055;DHT22;31788;6.954;-71.872;2023-04-25T07:40:50;26.90;99.90
46055;DHT22;31788;6.954;-71.872;2023-04-25T07:43:16;26.80;99.90
46055;DHT22;31788;6.954;-71.872;2023-04-25T07:45:47;26.80;99.90
46055;DHT22;31788;6.954;-71.872;2023-04-25T07:48:18;26.80;99.90
46055;DHT22;31788;6.954;-71.872;2023-04-25T07:50:44;26.80;99.90
46055;DHT22;31788;6.954;-71.872;2023-04-25T07:53:11;26.80;99.90
46055;DHT22;31788;6.954;-71.872;2023-04-25T07:55:38;26.80;99.90
46055;DHT22;31788;6.954;-71.872;2023-04-25T07:58:11;26.80;99.90
46055;DHT22;31788;6.954;-71.872;2023-04-25T08:00:38;26.80;99.90
46055;DHT22;31788;6.954;-71.872;2023-04-25T08:03:05;26.80;99.90
46055;DHT22;31788;6.954;-71.872;2023-04-25T08:05:32;26.80;99.90
46055;DHT22;31788;6.954;-71.872;2023-04-25T08:07:59;26.80;99.90
46055;DHT22;31788;6.954;-71.872;2023-04-25T08:10:25;26.80;99.90
46055;DHT22;31788;6.954;-71.872;2023-04-25T08:12:52;26.70;99.90
46055;DHT22;31788;6.954;-71.872;2023-04-25T08:15:18;26.70;99.90
46055;DHT22;31788;6.954;-71.872;2023-04-25T08:17:46;26.70;99.90
46055;DHT22;31788;6.954;-71.872;2023-04-25T08:20:12;26.70;99.90
46055;DHT22;31788;6.954;-71.872;2023-04-25T08:22:39;26.70;99.90
46055;DHT22;31788;6.954;-71.872;2023-04-25T08:25:06;26.70;99.90
46055;DHT22;31788;6.954;-71.872;2023-04-25T08:27:33;26.70;99.90
46055;DHT22;31788;6.954;-71.872;2023-04-25T08:29:59;26.70;99.90
46055;DHT22;31788;6.954;-71.872;2023-04-25T08:32:26;26.70;99.90
46055;DHT22;31788;6.954;-71.872;2023-04-25T08:34:53;26.70;99.90
46055;DHT22;31788;6.954;-71.872;2023-04-25T08:37:21;26.70;99.90
46055;DHT22;31788;6.954;-71.872;2023-04-25T08:39:48;26.70;99.90
46055;DHT22;31788;6.954;-71.872;2023-04-25T08:42:18;26.60;99.90
46055;DHT22;31788;6.954;-71.872;2023-04-25T08:44:49;26.60;99.90
46055;DHT22;31788;6.954;-71.872;2023-04-25T08:47:16;26.60;99.90
46055;DHT22;31788;6.954;-71.872;2023-04-25T08:49:45;26.50;99.90
46055;DHT22;31788;6.954;-71.872;2023-04-25T08:52:14;26.50;99.90
46055;DHT22;31788;6.954;-71.872;2023-04-25T08:54:48;26.50;99.90
46055;DHT22;31788;6.954;-71.872;2023-04-25T08:57:15;26.50;99.90
46055;DHT22;31788;6.954;-71.872;2023-04-25T08:59:42;26.50;99.90
46055;DHT22;31788;6.954;-71.872;2023-04-25T09:02:12;26.40;99.90
46055;DHT22;31788;6.954;-71.872;2023-04-25T09:04:44;26.50;99.90
46055;DHT22;31788;6.954;-71.872;2023-04-25T09:07:11;26.50;99.90
46055;DHT22;31788;6.954;-71.872;2023-04-25T09:09:38;26.50;99.90
46055;DHT22;31788;6.954;-71.872;2023-04-25T09:12:05;26.50;99.90
46055;DHT22;31788;6.954;-71.872;2023-04-25T09:14:32;26.50;99.90
46055;DHT22;31788;6.954;-71.872;2023-04-25T09:17:04;26.50;99.90
46055;DHT22;31788;6.954;-71.872;2023-04-25T09:19:39;26.50;99.90
46055;DHT22;31788;6.954;-71.872;2023-04-25T09:22:06;26.50;99.90
46055;DHT22;31788;6.954;-71.872;2023-04-25T09:27:11;26.50;99.90
46055;DHT22;31788;6.954;-71.872;2023-04-25T09:29:40;26.50;99.90
46055;DHT22;31788;6.954;-71.872;2023-04-25T09:32:22;26.50;99.90
46055;DHT22;31788;6.954;-71.872;2023-04-25T09:34:55;26.50;99.90
46055;DHT22;31788;6.954;-71.872;2023-04-25T09:37:27;26.50;99.90
46055;DHT22;31788;6.954;-71.872;2023-04-25T09:39:56;26.50;99.90
46055;DHT22;31788;6.954;-71.872;2023-04-25T09:42:27;26.50;99.90
46055;DHT22;31788;6.954;-71.872;2023-04-25T09:44:55;26.50;99.90
46055;DHT22;31788;6.954;-71.872;2023-04-25T09:47:24;26.50;99.90
46055;DHT22;31788;6.954;-71.872;2023-04-25T09:49:52;26.50;99.90
46055;DHT22;31788;6.954;-71.872;2023-04-25T09:52:23;26.50;99.90
46055;DHT22;31788;6.954;-71.872;2023-04-25T09:54:50;26.50;99.90
46055;DHT22;31788;6.954;-71.872;2023-04-25T09:57:22;26.40;99.90
46055;DHT22;31788;6.954;-71.872;2023-04-25T09:59:51;26.40;99.90
46055;DHT22;31788;6.954;-71.872;2023-04-25T10:02:23;26.40;99.90
46055;DHT22;31788;6.954;-71.872;2023-04-25T10:04:55;26.40;99.90
46055;DHT22;31788;6.954;-71.872;2023-04-25T10:07:28;26.40;99.90
46055;DHT22;31788;6.954;-71.872;2023-04-25T10:10:01;26.40;99.90
46055;DHT22;31788;6.954;-71.872;2023-04-25T10:12:31;26.40;99.90
46055;DHT22;31788;6.954;-71.872;2023-04-25T10:14:59;26.40;99.90
46055;DHT22;31788;6.954;-71.872;2023-04-25T10:17:29;26.30;99.90
46055;DHT22;31788;6.954;-71.872;2023-04-25T10:19:56;26.30;99.90
46055;DHT22;31788;6.954;-71.872;2023-04-25T10:22:29;26.30;99.90
46055;DHT22;31788;6.954;-71.872;2023-04-25T10:24:57;26.30;99.90
46055;DHT22;31788;6.954;-71.872;2023-04-25T10:27:23;26.20;99.90
46055;DHT22;31788;6.954;-71.872;2023-04-25T10:30:14;26.30;99.90
46055;DHT22;31788;6.954;-71.872;2023-04-25T10:32:43;26.30;99.90
46055;DHT22;31788;6.954;-71.872;2023-04-25T10:38:11;26.30;99.90
46055;DHT22;31788;6.954;-71.872;2023-04-25T10:40:40;26.30;99.90
46055;DHT22;31788;6.954;-71.872;2023-04-25T10:45:59;26.30;99.90
46055;DHT22;31788;6.954;-71.872;2023-04-25T10:48:30;26.30;99.90
46055;DHT22;31788;6.954;-71.872;2023-04-25T10:51:09;26.30;99.90
46055;DHT22;31788;6.954;-71.872;2023-04-25T10:53:37;26.30;99.90
46055;DHT22;31788;6.954;-71.872;2023-04-25T10:56:19;26.30;99.90
46055;DHT22;31788;6.954;-71.872;2023-04-25T10:58:48;26.30;99.90
46055;DHT22;31788;6.954;-71.872;2023-04-25T11:01:19;26.30;99.90
46055;DHT22;31788;6.954;-71.872;2023-04-25T11:03:47;26.30;99.90
46055;DHT22;31788;6.954;-71.872;2023-04-25T11:09:01;26.30;99.90
46055;DHT22;31788;6.954;-71.872;2023-04-25T11:11:29;26.30;99.90
46055;DHT22;31788;6.954;-71.872;2023-04-25T11:13:56;26.30;99.90
46055;DHT22;31788;6.954;-71.872;2023-04-25T11:16:24;26.40;99.90
46055;DHT22;31788;6.954;-71.872;2023-04-25T11:18:56;26.40;99.90
46055;DHT22;31788;6.954;-71.872;2023-04-25T11:21:23;26.40;99.90
46055;DHT22;31788;6.954;-71.872;2023-04-25T11:23:52;26.50;99.90
46055;DHT22;31788;6.954;-71.872;2023-04-25T11:26:20;26.50;99.90
46055;DHT22;31788;6.954;-71.872;2023-04-25T11:28:49;26.50;99.90
46055;DHT22;31788;6.954;-71.872;2023-04-25T11:31:16;26.60;99.90
46055;DHT22;31788;6.954;-71.872;2023-04-25T11:33:46;26.60;99.90
46055;DHT22;31788;6.954;-71.872;2023-04-25T11:36:13;26.70;99.90
46055;DHT22;31788;6.954;-71.872;2023-04-25T11:38:40;26.70;99.90
46055;DHT22;31788;6.954;-71.872;2023-04-25T11:41:07;26.70;99.90
46055;DHT22;31788;6.954;-71.872;2023-04-25T11:43:34;26.70;99.90
46055;DHT22;31788;6.954;-71.872;2023-04-25T11:46:00;26.70;99.90
46055;DHT22;31788;6.954;-71.872;2023-04-25T11:48:27;26.70;99.90
46055;DHT22;31788;6.954;-71.872;2023-04-25T11:50:54;26.70;99.90
46055;DHT22;31788;6.954;-71.872;2023-04-25T11:53:21;26.80;99.90
46055;DHT22;31788;6.954;-71.872;2023-04-25T11:55:47;26.80;99.90
46055;DHT22;31788;6.954;-71.872;2023-04-25T11:58:14;26.80;99.90
46055;DHT22;31788;6.954;-71.872;2023-04-25T12:00:42;26.80;99.90
46055;DHT22;31788;6.954;-71.872;2023-04-25T12:03:09;26.90;99.90
46055;DHT22;31788;6.954;-71.872;2023-04-25T12:05:36;27.00;99.90
46055;DHT22;31788;6.954;-71.872;2023-04-25T12:08:13;27.00;99.90
46055;DHT22;31788;6.954;-71.872;2023-04-25T12:10:45;27.00;99.90
46055;DHT22;31788;6.954;-71.872;2023-04-25T12:13:26;27.10;99.90
46055;DHT22;31788;6.954;-71.872;2023-04-25T12:15:57;27.10;99.90
46055;DHT22;31788;6.954;-71.872;2023-04-25T12:18:24;27.10;99.90
46055;DHT22;31788;6.954;-71.872;2023-04-25T12:20:54;27.10;99.90
46055;DHT22;31788;6.954;-71.872;2023-04-25T12:23:28;27.10;99.90
46055;DHT22;31788;6.954;-71.872;2023-04-25T12:25:55;27.20;99.90
46055;DHT22;31788;6.954;-71.872;2023-04-25T12:28:24;27.20;99.90
46055;DHT22;31788;6.954;-71.872;2023-04-25T12:33:24;27.30;99.90
46055;DHT22;31788;6.954;-71.872;2023-04-25T12:35:53;27.30;99.90
46055;DHT22;31788;6.954;-71.872;2023-04-25T12:38:31;27.40;99.90
46055;DHT22;31788;6.954;-71.872;2023-04-25T12:40:59;27.40;99.90
46055;DHT22;31788;6.954;-71.872;2023-04-25T12:43:26;27.40;99.90
46055;DHT22;31788;6.954;-71.872;2023-04-25T12:45:54;27.40;99.90
46055;DHT22;31788;6.954;-71.872;2023-04-25T12:48:22;27.50;99.90
46055;DHT22;31788;6.954;-71.872;2023-04-25T12:50:49;27.50;99.90
46055;DHT22;31788;6.954;-71.872;2023-04-25T12:53:20;27.50;99.90
46055;DHT22;31788;6.954;-71.872;2023-04-25T12:55:51;27.50;99.90
46055;DHT22;31788;6.954;-71.872;2023-04-25T12:58:18;27.50;99.90
46055;DHT22;31788;6.954;-71.872;2023-04-25T13:00:46;27.60;99.90
46055;DHT22;31788;6.954;-71.872;2023-04-25T13:03:14;27.60;99.90
46055;DHT22;31788;6.954;-71.872;2023-04-25T13:05:41;27.60;99.90
46055;DHT22;31788;6.954;-71.872;2023-04-25T13:08:08;27.60;99.90
46055;DHT22;31788;6.954;-71.872;2023-04-25T13:10:35;27.60;99.90
46055;DHT22;31788;6.954;-71.872;2023-04-25T13:13:02;27.60;99.90
46055;DHT22;31788;6.954;-71.872;2023-04-25T13:15:28;27.60;99.90
46055;DHT22;31788;6.954;-71.872;2023-04-25T13:17:55;27.60;99.90
46055;DHT22;31788;6.954;-71.872;2023-04-25T13:20:22;27.60;99.90
46055;DHT22;31788;6.954;-71.872;2023-04-25T13:22:48;27.60;99.90
46055;DHT22;31788;6.954;-71.872;2023-04-25T13:25:15;27.60;99.90
46055;DHT22;31788;6.954;-71.872;2023-04-25T13:27:42;27.60;99.90
46055;DHT22;31788;6.954;-71.872;2023-04-25T13:30:10;27.60;99.90
46055;DHT22;31788;6.954;-71.872;2023-04-25T13:32:37;27.70;99.90
46055;DHT22;31788;6.954;-71.872;2023-04-25T13:35:09;27.70;99.90
46055;DHT22;31788;6.954;-71.872;2023-04-25T13:37:36;27.70;99.90
46055;DHT22;31788;6.954;-71.872;2023-04-25T13:40:07;27.70;99.90
46055;DHT22;31788;6.954;-71.872;2023-04-25T13:42:38;27.80;99.90
46055;DHT22;31788;6.954;-71.872;2023-04-25T13:45:07;27.80;99.90
46055;DHT22;31788;6.954;-71.872;2023-04-25T13:47:34;27.80;99.90
46055;DHT22;31788;6.954;-71.872;2023-04-25T13:50:01;27.80;99.90
46055;DHT22;31788;6.954;-71.872;2023-04-25T13:52:29;27.80;99.90
46055;DHT22;31788;6.954;-71.872;2023-04-25T13:54:56;27.90;99.90
46055;DHT22;31788;6.954;-71.872;2023-04-25T13:57:22;27.90;99.90
46055;DHT22;31788;6.954;-71.872;2023-04-25T13:59:50;27.90;99.90
46055;DHT22;31788;6.954;-71.872;2023-04-25T14:02:16;28.00;99.90
46055;DHT22;31788;6.954;-71.872;2023-04-25T14:04:45;28.00;99.90
46055;DHT22;31788;6.954;-71.872;2023-04-25T14:07:11;28.00;99.90
46055;DHT22;31788;6.954;-71.872;2023-04-25T14:09:38;28.00;99.90
46055;DHT22;31788;6.954;-71.872;2023-04-25T14:12:05;28.00;99.90
46055;DHT22;31788;6.954;-71.872;2023-04-25T14:14:32;28.00;99.90
46055;DHT22;31788;6.954;-71.872;2023-04-25T14:16:58;28.10;99.90
46055;DHT22;31788;6.954;-71.872;2023-04-25T14:19:25;28.10;99.90
46055;DHT22;31788;6.954;-71.872;2023-04-25T14:21:51;28.10;99.90
46055;DHT22;31788;6.954;-71.872;2023-04-25T14:24:18;28.10;99.90
46055;DHT22;31788;6.954;-71.872;2023-04-25T14:26:44;28.10;99.90
46055;DHT22;31788;6.954;-71.872;2023-04-25T14:29:11;28.20;99.90
46055;DHT22;31788;6.954;-71.872;2023-04-25T14:31:38;28.20;99.90
46055;DHT22;31788;6.954;-71.872;2023-04-25T14:34:06;28.20;99.90
46055;DHT22;31788;6.954;-71.872;2023-04-25T14:36:33;28.20;99.90
46055;DHT22;31788;6.954;-71.872;2023-04-25T14:39:00;28.20;99.90
46055;DHT22;31788;6.954;-71.872;2023-04-25T14:41:27;28.20;99.90
46055;DHT22;31788;6.954;-71.872;2023-04-25T14:43:54;28.20;99.90
46055;DHT22;31788;6.954;-71.872;2023-04-25T14:46:22;28.20;99.90
46055;DHT22;31788;6.954;-71.872;2023-04-25T14:48:49;28.30;99.80
46055;DHT22;31788;6.954;-71.872;2023-04-25T14:51:16;28.30;99.90
46055;DHT22;31788;6.954;-71.872;2023-04-25T14:53:43;28.30;99.90
46055;DHT22;31788;6.954;-71.872;2023-04-25T14:56:10;28.30;99.90
46055;DHT22;31788;6.954;-71.872;2023-04-25T14:58:37;28.30;99.90
46055;DHT22;31788;6.954;-71.872;2023-04-25T15:01:04;28.30;99.90
46055;DHT22;31788;6.954;-71.872;2023-04-25T15:03:31;28.30;99.90
46055;DHT22;31788;6.954;-71.872;2023-04-25T15:05:58;28.30;99.90
46055;DHT22;31788;6.954;-71.872;2023-04-25T15:08:24;28.30;99.90
46055;DHT22;31788;6.954;-71.872;2023-04-25T15:10:52;28.30;99.90
46055;DHT22;31788;6.954;-71.872;2023-04-25T15:13:19;28.30;99.90
46055;DHT22;31788;6.954;-71.872;2023-04-25T15:15:46;28.40;99.90
46055;DHT22;31788;6.954;-71.872;2023-04-25T15:18:19;28.40;99.90
46055;DHT22;31788;6.954;-71.872;2023-04-25T15:20:51;28.40;99.90
46055;DHT22;31788;6.954;-71.872;2023-04-25T15:23:19;28.40;99.90
46055;DHT22;31788;6.954;-71.872;2023-04-25T15:25:46;28.40;99.80
46055;DHT22;31788;6.954;-71.872;2023-04-25T15:28:13;28.40;99.70
46055;DHT22;31788;6.954;-71.872;2023-04-25T15:30:42;28.40;99.50
46055;DHT22;31788;6.954;-71.872;2023-04-25T15:33:09;28.50;99.50